createdAt,value
2022-08-26T00:02:01.850Z,26.69
2022-08-26T00:04:32.010Z,26.65
2022-08-26T00:07:05.339Z,26.64
2022-08-26T00:09:37.257Z,26.61
2022-08-26T00:12:09.554Z,26.58
2022-08-26T00:14:42.204Z,26.53
2022-08-26T00:17:11.920Z,26.50
2022-08-26T00:19:41.348Z,26.28
2022-08-26T00:22:14.333Z,26.01
2022-08-26T00:24:51.104Z,26.06
2022-08-26T00:27:20.587Z,26.20
2022-08-26T00:29:50.281Z,26.25
2022-08-26T00:32:20.208Z,26.28
2022-08-26T00:34:49.680Z,26.31
2022-08-26T00:37:21.697Z,26.26
2022-08-26T00:39:52.868Z,26.22
2022-08-26T00:42:22.315Z,26.17
2022-08-26T00:44:52.212Z,26.14
2022-08-26T00:47:25.249Z,26.13
2022-08-26T00:49:54.784Z,26.12
2022-08-26T00:52:26.824Z,26.07
2022-08-26T00:54:58.221Z,26.03
2022-08-26T00:57:28.127Z,26.06
2022-08-26T00:59:59.322Z,26.03
2022-08-26T01:02:29.614Z,26.00
2022-08-26T01:05:00.704Z,25.99
2022-08-26T01:07:33.187Z,25.96
2022-08-26T01:10:04.556Z,25.96
2022-08-26T01:12:36.540Z,25.87
2022-08-26T01:15:10.537Z,25.75
2022-08-26T01:17:41.176Z,25.73
2022-08-26T01:20:19.755Z,25.68
2022-08-26T01:22:54.769Z,25.69
2022-08-26T01:25:24.384Z,25.68
2022-08-26T01:27:53.941Z,25.67
2022-08-26T01:30:27.187Z,25.62
2022-08-26T01:32:57.460Z,25.60
2022-08-26T01:35:26.926Z,25.59
2022-08-26T01:38:00.286Z,25.58
2022-08-26T01:40:32.693Z,25.53
2022-08-26T01:43:02.492Z,25.50
2022-08-26T01:45:32.915Z,25.52
2022-08-26T01:48:02.512Z,25.51
2022-08-26T01:50:33.515Z,25.52
2022-08-26T01:53:09.515Z,25.51
2022-08-26T01:55:40.678Z,25.49
2022-08-26T01:58:12.226Z,25.45
2022-08-26T02:00:44.128Z,25.41
2022-08-26T02:03:21.683Z,25.37
2022-08-26T02:05:55.996Z,25.35
2022-08-26T02:08:30.097Z,25.33
2022-08-26T02:11:00.124Z,25.30
2022-08-26T02:13:30.622Z,25.29
2022-08-26T02:16:00.556Z,25.26
2022-08-26T02:18:30.561Z,25.24
2022-08-26T02:21:00.408Z,25.24
2022-08-26T02:23:32.560Z,25.17
2022-08-26T02:26:05.528Z,25.13
2022-08-26T02:28:38.436Z,25.12
2022-08-26T02:31:08.587Z,25.13
2022-08-26T02:33:43.125Z,25.12
2022-08-26T02:36:13.503Z,25.12
2022-08-26T02:38:47.586Z,25.06
2022-08-26T02:41:17.620Z,25.01
2022-08-26T02:43:47.575Z,24.98
2022-08-26T02:46:21.512Z,24.98
2022-08-26T02:48:59.647Z,24.95
2022-08-26T02:51:29.087Z,24.90
2022-08-26T02:54:01.143Z,24.89
2022-08-26T02:56:31.068Z,24.91
2022-08-26T02:59:02.007Z,24.89
2022-08-26T03:01:33.411Z,24.93
2022-08-26T03:04:03.191Z,24.88
2022-08-26T03:06:32.814Z,24.89
2022-08-26T03:09:04.864Z,24.81
2022-08-26T03:11:34.479Z,24.75
2022-08-26T03:14:04.836Z,24.69
2022-08-26T03:16:35.443Z,24.66
2022-08-26T03:19:05.181Z,24.72
2022-08-26T03:24:08.568Z,24.70
2022-08-26T03:26:38.013Z,24.68
2022-08-26T03:29:21.116Z,24.69
2022-08-26T03:31:50.610Z,24.67
2022-08-26T03:34:20.241Z,24.64
2022-08-26T03:36:51.877Z,24.63
2022-08-26T03:39:23.915Z,24.68
2022-08-26T03:41:55.409Z,24.62
2022-08-26T03:44:24.667Z,24.54
2022-08-26T03:46:54.993Z,24.51
2022-08-26T03:49:24.654Z,24.41
2022-08-26T03:51:58.413Z,24.46
2022-08-26T03:54:30.458Z,24.37
2022-08-26T03:56:59.930Z,24.21
2022-08-26T03:59:29.466Z,24.37
2022-08-26T04:01:59.037Z,24.33
2022-08-26T04:04:28.596Z,24.14
2022-08-26T04:06:59.076Z,24.02
2022-08-26T04:09:31.106Z,23.35
2022-08-26T04:12:04.659Z,23.40
2022-08-26T04:14:35.672Z,23.50
2022-08-26T04:17:07.508Z,23.34
2022-08-26T04:19:37.055Z,23.77
2022-08-26T04:22:06.526Z,24.06
2022-08-26T04:24:39.177Z,24.11
2022-08-26T04:27:10.389Z,24.24
2022-08-26T04:29:41.610Z,24.26
2022-08-26T04:32:11.241Z,24.28
2022-08-26T04:34:41.449Z,24.33
2022-08-26T04:37:13.213Z,24.34
2022-08-26T04:39:45.760Z,24.45
2022-08-26T04:42:19.888Z,24.57
2022-08-26T04:44:55.688Z,24.47
2022-08-26T04:47:29.134Z,24.42
2022-08-26T04:50:01.978Z,24.44
2022-08-26T04:52:31.580Z,24.35
2022-08-26T04:55:03.604Z,24.50
2022-08-26T04:57:36.143Z,24.53
2022-08-26T05:00:06.997Z,24.63
2022-08-26T05:02:36.694Z,24.62
2022-08-26T05:05:07.225Z,24.60
2022-08-26T05:07:36.961Z,24.63
2022-08-26T05:10:10.233Z,24.73
2022-08-26T05:12:40.317Z,24.67
2022-08-26T05:15:11.244Z,24.61
2022-08-26T05:17:40.776Z,24.66
2022-08-26T05:20:12.037Z,24.78
2022-08-26T05:22:41.533Z,24.74
2022-08-26T05:25:13.708Z,24.75
2022-08-26T05:27:43.171Z,24.72
2022-08-26T05:30:13.388Z,24.72
2022-08-26T05:32:42.854Z,24.66
2022-08-26T05:35:12.593Z,24.62
2022-08-26T05:37:42.426Z,24.80
2022-08-26T05:40:15.274Z,24.82
2022-08-26T05:42:44.760Z,24.62
2022-08-26T05:45:15.077Z,24.11
2022-08-26T05:47:46.744Z,24.19
2022-08-26T05:50:21.790Z,24.29
2022-08-26T05:52:52.432Z,24.40
2022-08-26T05:55:26.900Z,24.52
2022-08-26T05:57:56.685Z,25.00
2022-08-26T06:00:26.846Z,25.35
2022-08-26T06:02:56.395Z,25.58
2022-08-26T06:05:26.665Z,25.42
2022-08-26T06:08:10.378Z,25.60
2022-08-26T06:10:48.476Z,26.05
2022-08-26T06:13:18.525Z,26.03
2022-08-26T06:15:50.331Z,25.62
2022-08-26T06:18:21.257Z,25.92
2022-08-26T06:20:57.164Z,25.82
2022-08-26T06:26:26.435Z,25.63
2022-08-26T06:28:56.139Z,26.12
2022-08-26T06:31:25.732Z,26.27
2022-08-26T06:33:55.385Z,26.55
2022-08-26T06:36:25.939Z,26.80
2022-08-26T06:38:55.879Z,26.60
2022-08-26T06:41:27.925Z,26.36
2022-08-26T06:43:57.370Z,25.82
2022-08-26T06:46:27.192Z,26.38
2022-08-26T06:48:58.216Z,26.67
2022-08-26T06:51:28.120Z,26.80
2022-08-26T06:53:59.587Z,27.01
2022-08-26T06:56:34.824Z,27.18
2022-08-26T06:59:04.569Z,27.10
2022-08-26T07:01:38.542Z,27.23
2022-08-26T07:04:15.909Z,27.56
2022-08-26T07:06:52.897Z,27.77
2022-08-26T07:09:23.065Z,27.90
2022-08-26T07:11:56.188Z,28.17
2022-08-26T07:14:26.201Z,28.28
2022-08-26T07:16:56.010Z,28.53
2022-08-26T07:19:31.092Z,28.66
2022-08-26T07:22:02.228Z,28.67
2022-08-26T07:24:33.017Z,28.67
2022-08-26T07:27:07.250Z,28.77
2022-08-26T07:29:39.009Z,28.86
2022-08-26T07:32:08.841Z,29.07
2022-08-26T07:34:39.724Z,29.15
2022-08-26T07:37:11.336Z,29.25
2022-08-26T07:39:41.782Z,29.34
2022-08-26T07:42:15.844Z,29.41
2022-08-26T07:44:47.914Z,29.56
2022-08-26T07:47:24.932Z,29.66
2022-08-26T07:49:56.454Z,29.72
2022-08-26T07:52:27.238Z,29.77
2022-08-26T07:54:58.233Z,29.92
2022-08-26T07:57:30.443Z,30.16
2022-08-26T07:59:59.937Z,30.23
2022-08-26T08:02:30.663Z,30.34
2022-08-26T08:05:00.290Z,30.50
2022-08-26T08:07:44.979Z,30.62
2022-08-26T08:10:15.651Z,30.59
2022-08-26T08:12:47.869Z,30.65
2022-08-26T08:15:17.549Z,30.73
2022-08-26T08:17:47.006Z,30.81
2022-08-26T08:20:20.440Z,31.07
2022-08-26T08:22:50.069Z,31.24
2022-08-26T08:25:19.545Z,31.29
2022-08-26T08:27:51.578Z,31.38
2022-08-26T08:30:23.070Z,31.46
2022-08-26T08:32:52.712Z,31.36
2022-08-26T08:35:23.357Z,31.35
2022-08-26T08:37:54.827Z,31.52
2022-08-26T08:40:25.467Z,31.71
2022-08-26T08:43:00.315Z,31.79
2022-08-26T08:45:36.554Z,32.01
2022-08-26T08:48:08.104Z,32.01
2022-08-26T08:50:44.650Z,32.25
2022-08-26T08:53:17.788Z,32.37
2022-08-26T08:56:00.130Z,32.58
2022-08-26T08:58:37.549Z,32.77
2022-08-26T09:01:09.860Z,32.93
2022-08-26T09:03:45.956Z,32.83
2022-08-26T09:06:20.580Z,33.04
2022-08-26T09:08:51.186Z,33.08
2022-08-26T09:11:21.103Z,33.22
2022-08-26T09:13:54.564Z,33.26
2022-08-26T09:16:27.673Z,33.24
2022-08-26T09:19:07.023Z,33.28
2022-08-26T09:21:36.590Z,33.56
2022-08-26T09:24:06.824Z,33.70
2022-08-26T09:26:45.616Z,33.84
2022-08-26T09:29:22.588Z,34.08
2022-08-26T09:31:52.055Z,33.86
2022-08-26T09:34:23.811Z,33.86
2022-08-26T09:36:54.308Z,34.12
2022-08-26T09:39:37.697Z,34.16
2022-08-26T09:42:10.781Z,34.36
2022-08-26T09:44:59.741Z,34.48
2022-08-26T09:47:31.764Z,34.68
2022-08-26T09:50:04.665Z,34.73
2022-08-26T09:52:40.642Z,34.78
2022-08-26T09:55:15.013Z,34.79
2022-08-26T09:57:49.654Z,34.72
2022-08-26T10:00:32.356Z,34.88
2022-08-26T10:03:03.310Z,34.93
2022-08-26T10:05:35.916Z,34.99
2022-08-26T10:08:18.714Z,35.14
2022-08-26T10:10:48.239Z,35.23
2022-08-26T10:13:27.995Z,35.21
2022-08-26T10:16:06.271Z,35.35
2022-08-26T10:18:43.077Z,35.72
2022-08-26T10:21:15.041Z,35.95
2022-08-26T10:23:48.950Z,36.05
2022-08-26T10:26:21.517Z,36.12
2022-08-26T10:28:53.773Z,36.16
2022-08-26T10:31:30.311Z,36.27
2022-08-26T10:34:07.942Z,36.40
2022-08-26T10:37:14.546Z,36.47
2022-08-26T10:39:46.362Z,36.67
2022-08-26T10:42:19.265Z,36.68
2022-08-26T10:44:49.386Z,36.40
2022-08-26T10:47:24.613Z,36.15
2022-08-26T10:49:57.502Z,36.06
2022-08-26T10:52:35.025Z,35.94
2022-08-26T10:55:05.964Z,36.01
2022-08-26T10:57:45.204Z,36.00
2022-08-26T11:00:29.076Z,36.15
2022-08-26T11:03:06.191Z,36.43
2022-08-26T11:06:08.461Z,36.49
2022-08-26T11:08:37.931Z,36.56
2022-08-26T11:11:09.195Z,36.51
2022-08-26T11:14:06.333Z,36.45
2022-08-26T11:16:43.436Z,36.31
2022-08-26T11:20:00.233Z,36.25
2022-08-26T11:22:32.300Z,36.28
2022-08-26T11:25:12.228Z,36.11
2022-08-26T11:28:09.388Z,36.27
2022-08-26T11:30:57.676Z,36.23
2022-08-26T11:34:00.766Z,36.50
2022-08-26T11:37:03.483Z,36.57
2022-08-26T11:39:36.665Z,36.71
2022-08-26T11:42:25.426Z,36.59
2022-08-26T11:44:58.194Z,36.54
2022-08-26T11:47:30.735Z,36.53
2022-08-26T11:50:14.334Z,36.65
2022-08-26T11:52:53.337Z,36.55
2022-08-26T11:55:23.305Z,36.72
2022-08-26T11:57:54.639Z,36.48
2022-08-26T12:00:25.391Z,36.53
2022-08-26T12:02:55.666Z,36.52
2022-08-26T12:05:30.833Z,36.54
2022-08-26T12:08:06.226Z,36.29
2022-08-26T12:10:36.531Z,36.39
2022-08-26T12:13:07.236Z,36.49
2022-08-26T12:15:36.957Z,36.48
2022-08-26T12:18:29.681Z,36.31
2022-08-26T12:21:01.578Z,36.28
2022-08-26T12:23:43.331Z,36.20
2022-08-26T12:26:15.412Z,36.20
2022-08-26T12:28:47.108Z,36.35
2022-08-26T12:31:24.106Z,36.56
2022-08-26T12:33:54.699Z,36.71
2022-08-26T12:36:27.611Z,36.75
2022-08-26T12:39:08.354Z,36.94
2022-08-26T12:41:46.981Z,37.25
2022-08-26T12:44:38.341Z,37.52
2022-08-26T12:47:09.262Z,37.60
2022-08-26T12:49:39.505Z,37.50
2022-08-26T12:52:09.920Z,37.50
2022-08-26T12:54:56.821Z,37.12
2022-08-26T12:57:29.114Z,36.88
2022-08-26T13:00:40.828Z,36.99
2022-08-26T13:03:46.102Z,37.22
2022-08-26T13:06:17.773Z,37.34
2022-08-26T13:08:47.783Z,37.36
2022-08-26T13:11:21.601Z,37.45
2022-08-26T13:13:51.706Z,37.32
2022-08-26T13:16:21.669Z,36.89
2022-08-26T13:18:51.626Z,37.04
2022-08-26T13:21:22.144Z,36.91
2022-08-26T13:23:51.729Z,36.86
2022-08-26T13:26:24.322Z,36.72
2022-08-26T13:29:01.445Z,36.73
2022-08-26T13:31:32.507Z,36.54
2022-08-26T13:34:03.082Z,36.55
2022-08-26T13:36:32.581Z,36.69
2022-08-26T13:39:02.027Z,36.67
2022-08-26T13:41:34.595Z,36.61
2022-08-26T13:44:04.268Z,36.41
2022-08-26T13:46:33.819Z,36.42
2022-08-26T13:49:03.401Z,36.38
2022-08-26T13:51:33.013Z,36.62
2022-08-26T13:54:02.522Z,36.62
2022-08-26T13:56:34.628Z,36.70
2022-08-26T13:59:04.401Z,36.34
2022-08-26T14:01:34.479Z,36.13
2022-08-26T14:04:03.946Z,36.04
2022-08-26T14:06:33.449Z,35.91
2022-08-26T14:09:03.218Z,35.54
2022-08-26T14:11:50.981Z,35.15
2022-08-26T14:14:25.083Z,35.33
2022-08-26T14:16:59.486Z,35.08
2022-08-26T14:19:30.539Z,34.65
2022-08-26T14:22:00.771Z,34.14
2022-08-26T14:24:30.880Z,34.01
2022-08-26T14:27:02.912Z,34.22
2022-08-26T14:29:32.352Z,33.92
2022-08-26T14:32:02.492Z,34.03
2022-08-26T14:34:32.069Z,33.74
2022-08-26T14:37:07.246Z,33.58
2022-08-26T14:39:38.129Z,33.55
2022-08-26T14:42:10.351Z,33.50
2022-08-26T14:44:40.004Z,33.54
2022-08-26T14:47:09.629Z,33.17
2022-08-26T14:49:39.077Z,32.95
2022-08-26T14:52:08.588Z,32.80
2022-08-26T14:54:35.435Z,32.67
2022-08-26T14:57:06.240Z,32.37
2022-08-26T14:59:39.308Z,32.08
2022-08-26T15:02:11.501Z,31.69
2022-08-26T15:04:59.869Z,31.41
2022-08-26T15:07:29.318Z,31.44
2022-08-26T15:09:58.729Z,31.49
2022-08-26T15:12:28.182Z,31.35
2022-08-26T15:15:00.197Z,31.32
2022-08-26T15:17:29.884Z,31.08
2022-08-26T15:19:59.361Z,31.05
2022-08-26T15:22:29.877Z,30.38
2022-08-26T15:24:59.160Z,30.24
2022-08-26T15:27:28.618Z,30.35
2022-08-26T15:30:00.624Z,30.22
2022-08-26T15:32:30.762Z,30.09
2022-08-26T15:35:00.200Z,29.94
2022-08-26T15:37:29.661Z,30.09
2022-08-26T15:39:59.481Z,29.80
2022-08-26T15:42:28.932Z,29.63
2022-08-26T15:45:00.950Z,29.68
2022-08-26T15:47:31.083Z,29.52
2022-08-26T15:50:04.898Z,29.73
2022-08-26T15:52:34.349Z,29.92
2022-08-26T15:57:53.469Z,29.69
2022-08-26T16:00:26.472Z,29.49
2022-08-26T16:02:55.940Z,29.56
2022-08-26T16:05:25.473Z,29.66
2022-08-26T16:07:55.084Z,29.51
2022-08-26T16:10:24.790Z,29.48
2022-08-26T16:12:54.262Z,29.57
2022-08-26T16:15:26.287Z,29.66
2022-08-26T16:17:55.734Z,29.58
2022-08-26T16:20:26.163Z,29.56
2022-08-26T16:22:55.621Z,29.46
2022-08-26T16:25:25.435Z,29.57
2022-08-26T16:27:54.908Z,29.41
2022-08-26T16:30:27.769Z,29.28
2022-08-26T16:32:58.623Z,29.10
2022-08-26T16:35:28.232Z,28.86
2022-08-26T16:37:57.953Z,29.04
2022-08-26T16:40:27.518Z,29.02
2022-08-26T16:42:57.364Z,28.89
2022-08-26T16:45:29.448Z,28.90
2022-08-26T16:47:59.170Z,28.79
2022-08-26T16:50:28.605Z,28.98
2022-08-26T16:52:58.145Z,28.98
2022-08-26T16:55:27.584Z,28.61
2022-08-26T16:57:57.032Z,28.46
2022-08-26T17:00:30.490Z,28.55
2022-08-26T17:03:00.592Z,28.42
2022-08-26T17:05:30.461Z,28.46
2022-08-26T17:08:01.093Z,28.21
2022-08-26T17:10:31.196Z,28.35
2022-08-26T17:13:00.794Z,28.31
2022-08-26T17:15:32.925Z,28.38
2022-08-26T17:18:02.477Z,28.41
2022-08-26T17:20:32.412Z,28.21
2022-08-26T17:23:01.965Z,28.16
2022-08-26T17:25:33.241Z,28.36
2022-08-26T17:28:02.682Z,28.37
2022-08-26T17:30:34.732Z,28.33
2022-08-26T17:33:10.913Z,28.24
2022-08-26T17:35:40.625Z,27.92
2022-08-26T17:38:10.435Z,27.99
2022-08-26T17:40:40.093Z,28.01
2022-08-26T17:43:12.324Z,27.74
2022-08-26T17:45:44.642Z,27.65
2022-08-26T17:48:14.104Z,27.57
2022-08-26T17:50:49.400Z,27.61
2022-08-26T17:53:19.420Z,27.60
2022-08-26T17:55:48.948Z,27.65
2022-08-26T17:58:18.617Z,27.48
2022-08-26T18:00:54.182Z,27.44
2022-08-26T18:03:23.700Z,27.36
2022-08-26T18:05:53.863Z,27.22
2022-08-26T18:08:23.520Z,27.23
2022-08-26T18:10:53.009Z,27.42
2022-08-26T18:13:22.467Z,27.23
2022-08-26T18:15:54.518Z,27.15
2022-08-26T18:18:24.008Z,27.17
2022-08-26T18:21:01.511Z,27.16
2022-08-26T18:23:31.608Z,27.18
2022-08-26T18:26:01.045Z,27.13
2022-08-26T18:28:30.500Z,27.16
2022-08-26T18:31:04.398Z,26.99
2022-08-26T18:33:33.904Z,27.03
2022-08-26T18:36:03.698Z,27.07
2022-08-26T18:38:33.430Z,27.10
2022-08-26T18:41:06.416Z,27.07
2022-08-26T18:43:36.277Z,26.98
2022-08-26T18:46:09.520Z,26.90
2022-08-26T18:48:39.682Z,26.87
2022-08-26T18:51:09.250Z,26.87
2022-08-26T18:53:42.098Z,26.77
2022-08-26T18:56:13.219Z,26.77
2022-08-26T18:58:44.863Z,26.70
2022-08-26T19:01:26.749Z,26.90
2022-08-26T19:03:57.003Z,26.12
2022-08-26T19:06:27.064Z,25.96
2022-08-26T19:08:57.965Z,25.56
2022-08-26T19:11:32.568Z,25.62
2022-08-26T19:14:06.995Z,25.49
2022-08-26T19:16:39.260Z,25.56
2022-08-26T19:19:08.753Z,25.03
2022-08-26T19:21:38.670Z,24.90
2022-08-26T19:24:12.279Z,24.87
2022-08-26T19:26:41.772Z,25.51
2022-08-26T19:29:11.317Z,25.96
2022-08-26T19:31:43.965Z,25.84
2022-08-26T19:34:13.648Z,25.71
2022-08-26T19:36:46.733Z,25.15
2022-08-26T19:39:16.051Z,25.39
2022-08-26T19:41:45.484Z,25.23
2022-08-26T19:44:36.744Z,25.47
2022-08-26T19:47:09.665Z,25.93
2022-08-26T19:49:39.107Z,26.07
2022-08-26T19:52:08.768Z,26.42
2022-08-26T19:54:38.209Z,26.63
2022-08-26T19:57:08.045Z,26.66
2022-08-26T19:59:38.031Z,26.35
2022-08-26T20:02:11.275Z,26.11
2022-08-26T20:04:44.437Z,26.29
2022-08-26T20:07:18.135Z,26.45
2022-08-26T20:09:48.517Z,26.49
2022-08-26T20:12:18.741Z,26.52
2022-08-26T20:14:48.167Z,26.60
2022-08-26T20:17:20.210Z,26.63
2022-08-26T20:20:02.219Z,26.69
2022-08-26T20:22:31.679Z,26.71
2022-08-26T20:25:01.133Z,26.59
2022-08-26T20:27:37.927Z,26.61
2022-08-26T20:30:10.160Z,26.61
2022-08-26T20:32:42.568Z,26.51
2022-08-26T20:35:14.029Z,26.48
2022-08-26T20:37:43.521Z,26.40
2022-08-26T20:40:14.421Z,26.23
2022-08-26T20:42:43.985Z,26.14
2022-08-26T20:45:13.925Z,26.10
2022-08-26T20:47:45.957Z,26.07
2022-08-26T20:50:15.414Z,25.89
2022-08-26T20:52:44.854Z,25.79
2022-08-26T20:55:14.330Z,25.79
2022-08-26T20:57:44.350Z,25.68
2022-08-26T21:00:18.141Z,25.64
2022-08-26T21:02:53.906Z,25.80
2022-08-26T21:05:23.448Z,25.73
2022-08-26T21:07:53.265Z,25.73
2022-08-26T21:10:22.945Z,25.65
2022-08-26T21:12:53.036Z,25.61
2022-08-26T21:15:22.481Z,25.61
2022-08-26T21:17:54.480Z,25.25
2022-08-26T21:20:24.135Z,25.06
2022-08-26T21:22:53.628Z,25.02
2022-08-26T21:25:23.193Z,25.07
2022-08-26T21:27:52.673Z,25.19
2022-08-26T21:30:22.187Z,25.14
2022-08-26T21:32:54.216Z,25.16
2022-08-26T21:35:23.663Z,25.21
2022-08-26T21:37:53.089Z,25.24
2022-08-26T21:40:22.593Z,24.98
2022-08-26T21:42:52.073Z,24.93
2022-08-26T21:45:21.814Z,25.00
2022-08-26T21:47:56.413Z,25.01
2022-08-26T21:50:25.922Z,24.72
2022-08-26T21:52:55.366Z,24.95
2022-08-26T21:55:24.926Z,25.00
2022-08-26T21:57:54.933Z,25.05
2022-08-26T22:00:24.542Z,24.94
2022-08-26T22:02:57.456Z,24.85
2022-08-26T22:05:26.905Z,24.94
2022-08-26T22:07:56.396Z,24.93
2022-08-26T22:10:25.893Z,25.05
2022-08-26T22:12:56.052Z,24.94
2022-08-26T22:15:27.552Z,24.53
2022-08-26T22:17:59.831Z,24.40
2022-08-26T22:20:29.281Z,24.66
2022-08-26T22:22:58.719Z,24.75
2022-08-26T22:25:28.222Z,24.64
2022-08-26T22:27:57.693Z,24.83
2022-08-26T22:30:27.145Z,24.63
2022-08-26T22:32:59.442Z,24.65
2022-08-26T22:35:29.716Z,24.56
2022-08-26T22:37:59.393Z,24.51
2022-08-26T22:40:28.907Z,24.59
2022-08-26T22:43:00.256Z,24.58
2022-08-26T22:45:31.343Z,24.49
2022-08-26T22:48:04.629Z,24.64
2022-08-26T22:50:34.078Z,24.66
2022-08-26T22:53:03.512Z,24.61
2022-08-26T22:55:32.997Z,24.72
2022-08-26T22:58:03.076Z,24.54
2022-08-26T23:00:32.664Z,24.18
2022-08-26T23:03:06.927Z,24.43
2022-08-26T23:05:36.406Z,24.44
2022-08-26T23:08:06.435Z,24.26
2022-08-26T23:10:36.917Z,24.31
2022-08-26T23:13:08.135Z,24.20
2022-08-26T23:15:37.819Z,24.35
2022-08-26T23:18:09.986Z,24.47
2022-08-26T23:20:39.830Z,24.38
2022-08-26T23:23:09.464Z,24.40
2022-08-26T23:25:38.902Z,24.22
2022-08-26T23:28:12.505Z,24.18
2022-08-26T23:30:41.953Z,24.31
2022-08-26T23:33:13.946Z,24.21
2022-08-26T23:35:40.799Z,24.26
2022-08-26T23:38:11.777Z,24.33
2022-08-26T23:40:43.652Z,24.32
2022-08-26T23:43:16.355Z,24.15
2022-08-26T23:45:45.862Z,24.17
2022-08-26T23:48:17.900Z,24.29
2022-08-26T23:51:13.122Z,24.27
2022-08-26T23:53:43.565Z,24.26
2022-08-26T23:56:15.742Z,24.26
2022-08-26T23:58:52.470Z,24.31
